sensor_id;sensor_type;location;lat;lon;timestamp;P1;durP1;ratioP1;P2;durP2;ratioP2
8698;SDS011;4386;51.236;6.742;2023-03-01T00:00:04;13.98;;;9.73;;
8698;SDS011;4386;51.236;6.742;2023-03-01T00:01:15;10.25;;;8.45;;
8698;SDS011;4386;51.236;6.742;2023-03-01T00:02:28;12.38;;;9.20;;
8698;SDS011;4386;51.236;6.742;2023-03-01T00:03:33;12.65;;;9.10;;
8698;SDS011;4386;51.236;6.742;2023-03-01T00:04:35;11.57;;;8.30;;
8698;SDS011;4386;51.236;6.742;2023-03-01T00:05:43;12.35;;;8.77;;
8698;SDS011;4386;51.236;6.742;2023-03-01T00:06:45;14.88;;;8.80;;
8698;SDS011;4386;51.236;6.742;2023-03-01T00:07:48;9.65;;;8.15;;
8698;SDS011;4386;51.236;6.742;2023-03-01T00:08:55;12.43;;;9.52;;
8698;SDS011;4386;51.236;6.742;2023-03-01T00:09:58;11.77;;;8.18;;
8698;SDS011;4386;51.236;6.742;2023-03-01T00:11:00;9.43;;;8.50;;
8698;SDS011;4386;51.236;6.742;2023-03-01T00:12:04;10.98;;;8.43;;
8698;SDS011;4386;51.236;6.742;2023-03-01T00:13:07;11.30;;;8.45;;
8698;SDS011;4386;51.236;6.742;2023-03-01T00:14:14;12.40;;;8.55;;
8698;SDS011;4386;51.236;6.742;2023-03-01T00:15:17;10.77;;;7.88;;
8698;SDS011;4386;51.236;6.742;2023-03-01T00:16:21;14.18;;;8.80;;
8698;SDS011;4386;51.236;6.742;2023-03-01T00:17:24;13.65;;;8.13;;
8698;SDS011;4386;51.236;6.742;2023-03-01T00:18:27;11.15;;;8.02;;
8698;SDS011;4386;51.236;6.742;2023-03-01T00:19:28;10.85;;;8.05;;
8698;SDS011;4386;51.236;6.742;2023-03-01T00:20:33;11.48;;;7.57;;
8698;SDS011;4386;51.236;6.742;2023-03-01T00:21:35;15.25;;;9.52;;
8698;SDS011;4386;51.236;6.742;2023-03-01T00:22:38;11.57;;;8.00;;
8698;SDS011;4386;51.236;6.742;2023-03-01T00:23:40;12.43;;;8.35;;
8698;SDS011;4386;51.236;6.742;2023-03-01T00:24:44;15.88;;;9.48;;
8698;SDS011;4386;51.236;6.742;2023-03-01T00:25:45;11.88;;;8.48;;
8698;SDS011;4386;51.236;6.742;2023-03-01T00:26:48;10.68;;;8.95;;
8698;SDS011;4386;51.236;6.742;2023-03-01T00:27:54;11.35;;;8.60;;
8698;SDS011;4386;51.236;6.742;2023-03-01T00:28:57;11.15;;;8.63;;
8698;SDS011;4386;51.236;6.742;2023-03-01T00:30:00;12.82;;;8.85;;
8698;SDS011;4386;51.236;6.742;2023-03-01T00:31:04;10.75;;;7.85;;
8698;SDS011;4386;51.236;6.742;2023-03-01T00:32:07;12.88;;;8.25;;
8698;SDS011;4386;51.236;6.742;2023-03-01T00:33:09;12.27;;;9.20;;
8698;SDS011;4386;51.236;6.742;2023-03-01T00:34:11;12.10;;;8.18;;
8698;SDS011;4386;51.236;6.742;2023-03-01T00:35:14;11.52;;;7.90;;
8698;SDS011;4386;51.236;6.742;2023-03-01T00:36:16;10.77;;;7.90;;
8698;SDS011;4386;51.236;6.742;2023-03-01T00:37:19;11.85;;;8.48;;
8698;SDS011;4386;51.236;6.742;2023-03-01T00:38:21;11.15;;;7.95;;
8698;SDS011;4386;51.236;6.742;2023-03-01T00:39:24;12.18;;;8.13;;
8698;SDS011;4386;51.236;6.742;2023-03-01T00:40:27;11.68;;;8.13;;
8698;SDS011;4386;51.236;6.742;2023-03-01T00:41:39;12.30;;;8.70;;
8698;SDS011;4386;51.236;6.742;2023-03-01T00:42:41;11.73;;;9.07;;
8698;SDS011;4386;51.236;6.742;2023-03-01T00:43:44;12.45;;;8.27;;
8698;SDS011;4386;51.236;6.742;2023-03-01T00:44:46;12.43;;;8.20;;
8698;SDS011;4386;51.236;6.742;2023-03-01T00:45:49;12.38;;;8.15;;
8698;SDS011;4386;51.236;6.742;2023-03-01T00:46:50;11.48;;;8.38;;
8698;SDS011;4386;51.236;6.742;2023-03-01T00:47:53;11.98;;;8.63;;
8698;SDS011;4386;51.236;6.742;2023-03-01T00:48:55;12.70;;;8.40;;
8698;SDS011;4386;51.236;6.742;2023-03-01T00:49:58;12.23;;;8.27;;
8698;SDS011;4386;51.236;6.742;2023-03-01T00:51:04;14.50;;;8.60;;
8698;SDS011;4386;51.236;6.742;2023-03-01T00:52:17;9.70;;;8.38;;
8698;SDS011;4386;51.236;6.742;2023-03-01T00:53:19;13.60;;;8.85;;
8698;SDS011;4386;51.236;6.742;2023-03-01T00:54:21;9.35;;;7.53;;
8698;SDS011;4386;51.236;6.742;2023-03-01T00:55:23;11.30;;;8.20;;
8698;SDS011;4386;51.236;6.742;2023-03-01T00:56:27;12.88;;;8.45;;
8698;SDS011;4386;51.236;6.742;2023-03-01T00:57:31;10.35;;;7.88;;
8698;SDS011;4386;51.236;6.742;2023-03-01T00:58:35;10.52;;;8.25;;
8698;SDS011;4386;51.236;6.742;2023-03-01T00:59:36;11.75;;;7.88;;
8698;SDS011;4386;51.236;6.742;2023-03-01T01:00:39;14.23;;;9.38;;
8698;SDS011;4386;51.236;6.742;2023-03-01T01:01:50;11.52;;;8.40;;
8698;SDS011;4386;51.236;6.742;2023-03-01T01:02:53;11.48;;;8.70;;
8698;SDS011;4386;51.236;6.742;2023-03-01T01:03:55;12.20;;;8.48;;
8698;SDS011;4386;51.236;6.742;2023-03-01T01:05:10;11.20;;;7.97;;
8698;SDS011;4386;51.236;6.742;2023-03-01T01:06:15;9.20;;;8.23;;
8698;SDS011;4386;51.236;6.742;2023-03-01T01:07:19;15.32;;;8.55;;
8698;SDS011;4386;51.236;6.742;2023-03-01T01:08:21;14.32;;;8.98;;
8698;SDS011;4386;51.236;6.742;2023-03-01T01:09:23;15.52;;;9.20;;
8698;SDS011;4386;51.236;6.742;2023-03-01T01:10:25;11.55;;;9.30;;
8698;SDS011;4386;51.236;6.742;2023-03-01T01:11:29;12.63;;;9.20;;
8698;SDS011;4386;51.236;6.742;2023-03-01T01:12:31;12.38;;;9.05;;
8698;SDS011;4386;51.236;6.742;2023-03-01T01:13:34;12.45;;;9.43;;
8698;SDS011;4386;51.236;6.742;2023-03-01T01:14:35;10.88;;;8.30;;
8698;SDS011;4386;51.236;6.742;2023-03-01T01:15:38;13.63;;;10.07;;
8698;SDS011;4386;51.236;6.742;2023-03-01T01:16:40;15.93;;;9.07;;
8698;SDS011;4386;51.236;6.742;2023-03-01T01:17:43;12.98;;;8.77;;
8698;SDS011;4386;51.236;6.742;2023-03-01T01:18:44;9.55;;;8.27;;
8698;SDS011;4386;51.236;6.742;2023-03-01T01:19:47;12.50;;;8.48;;
8698;SDS011;4386;51.236;6.742;2023-03-01T01:20:49;11.60;;;8.15;;
8698;SDS011;4386;51.236;6.742;2023-03-01T01:21:52;11.88;;;8.35;;
8698;SDS011;4386;51.236;6.742;2023-03-01T01:23:05;12.20;;;8.85;;
8698;SDS011;4386;51.236;6.742;2023-03-01T01:24:08;14.27;;;9.52;;
8698;SDS011;4386;51.236;6.742;2023-03-01T01:25:10;13.25;;;9.40;;
8698;SDS011;4386;51.236;6.742;2023-03-01T01:26:13;12.00;;;9.25;;
8698;SDS011;4386;51.236;6.742;2023-03-01T01:27:17;10.95;;;9.15;;
8698;SDS011;4386;51.236;6.742;2023-03-01T01:28:20;13.10;;;9.30;;
8698;SDS011;4386;51.236;6.742;2023-03-01T01:29:22;12.00;;;8.48;;
8698;SDS011;4386;51.236;6.742;2023-03-01T01:30:32;14.02;;;8.80;;
8698;SDS011;4386;51.236;6.742;2023-03-01T01:31:34;12.02;;;10.38;;
8698;SDS011;4386;51.236;6.742;2023-03-01T01:32:38;15.65;;;8.00;;
8698;SDS011;4386;51.236;6.742;2023-03-01T01:33:39;10.45;;;8.63;;
8698;SDS011;4386;51.236;6.742;2023-03-01T01:34:42;11.63;;;8.82;;
8698;SDS011;4386;51.236;6.742;2023-03-01T01:35:54;14.07;;;9.38;;
8698;SDS011;4386;51.236;6.742;2023-03-01T01:37:06;10.00;;;8.77;;
8698;SDS011;4386;51.236;6.742;2023-03-01T01:38:09;12.50;;;9.60;;
8698;SDS011;4386;51.236;6.742;2023-03-01T01:39:11;11.77;;;8.48;;
8698;SDS011;4386;51.236;6.742;2023-03-01T01:40:14;11.70;;;9.07;;
8698;SDS011;4386;51.236;6.742;2023-03-01T01:41:15;11.07;;;9.32;;
8698;SDS011;4386;51.236;6.742;2023-03-01T01:42:19;12.85;;;9.50;;
8698;SDS011;4386;51.236;6.742;2023-03-01T01:43:22;14.55;;;9.73;;
8698;SDS011;4386;51.236;6.742;2023-03-01T01:44:27;14.05;;;8.82;;
8698;SDS011;4386;51.236;6.742;2023-03-01T01:45:31;13.15;;;9.02;;
8698;SDS011;4386;51.236;6.742;2023-03-01T01:46:35;14.52;;;10.45;;
8698;SDS011;4386;51.236;6.742;2023-03-01T01:47:40;12.52;;;9.10;;
8698;SDS011;4386;51.236;6.742;2023-03-01T01:48:43;12.00;;;8.40;;
8698;SDS011;4386;51.236;6.742;2023-03-01T01:49:49;14.18;;;9.20;;
8698;SDS011;4386;51.236;6.742;2023-03-01T01:50:54;12.75;;;9.05;;
8698;SDS011;4386;51.236;6.742;2023-03-01T01:52:02;13.13;;;9.20;;
8698;SDS011;4386;51.236;6.742;2023-03-01T01:53:14;13.48;;;9.82;;
8698;SDS011;4386;51.236;6.742;2023-03-01T01:54:20;13.88;;;9.63;;
8698;SDS011;4386;51.236;6.742;2023-03-01T01:55:25;10.55;;;8.57;;
8698;SDS011;4386;51.236;6.742;2023-03-01T01:56:28;12.68;;;9.25;;
8698;SDS011;4386;51.236;6.742;2023-03-01T01:57:35;11.90;;;8.45;;
8698;SDS011;4386;51.236;6.742;2023-03-01T01:58:39;12.35;;;9.20;;
8698;SDS011;4386;51.236;6.742;2023-03-01T01:59:45;11.23;;;9.20;;
8698;SDS011;4386;51.236;6.742;2023-03-01T02:00:50;12.45;;;9.27;;
8698;SDS011;4386;51.236;6.742;2023-03-01T02:01:55;12.52;;;9.00;;
8698;SDS011;4386;51.236;6.742;2023-03-01T02:03:01;16.00;;;9.80;;
8698;SDS011;4386;51.236;6.742;2023-03-01T02:04:15;11.25;;;8.90;;
8698;SDS011;4386;51.236;6.742;2023-03-01T02:05:19;15.13;;;10.02;;
8698;SDS011;4386;51.236;6.742;2023-03-01T02:06:26;15.00;;;10.50;;
8698;SDS011;4386;51.236;6.742;2023-03-01T02:07:32;11.75;;;8.90;;
8698;SDS011;4386;51.236;6.742;2023-03-01T02:08:35;10.13;;;8.60;;
8698;SDS011;4386;51.236;6.742;2023-03-01T02:09:41;15.38;;;9.50;;
8698;SDS011;4386;51.236;6.742;2023-03-01T02:10:46;13.68;;;9.25;;
8698;SDS011;4386;51.236;6.742;2023-03-01T02:11:53;11.43;;;9.82;;
8698;SDS011;4386;51.236;6.742;2023-03-01T02:12:56;14.52;;;9.60;;
8698;SDS011;4386;51.236;6.742;2023-03-01T02:13:59;18.25;;;8.85;;
8698;SDS011;4386;51.236;6.742;2023-03-01T02:15:01;13.15;;;9.10;;
8698;SDS011;4386;51.236;6.742;2023-03-01T02:16:04;11.05;;;9.10;;
8698;SDS011;4386;51.236;6.742;2023-03-01T02:17:09;13.20;;;9.65;;
8698;SDS011;4386;51.236;6.742;2023-03-01T02:18:14;12.05;;;9.25;;
8698;SDS011;4386;51.236;6.742;2023-03-01T02:19:22;11.93;;;9.07;;
8698;SDS011;4386;51.236;6.742;2023-03-01T02:25:20;19.83;;;11.07;;
8698;SDS011;4386;51.236;6.742;2023-03-01T02:26:29;13.70;;;9.60;;
8698;SDS011;4386;51.236;6.742;2023-03-01T02:27:38;13.02;;;9.77;;
8698;SDS011;4386;51.236;6.742;2023-03-01T02:28:52;15.35;;;10.40;;
8698;SDS011;4386;51.236;6.742;2023-03-01T02:29:54;14.00;;;10.57;;
8698;SDS011;4386;51.236;6.742;2023-03-01T02:30:58;12.05;;;10.00;;
8698;SDS011;4386;51.236;6.742;2023-03-01T02:32:20;12.60;;;10.52;;
8698;SDS011;4386;51.236;6.742;2023-03-01T02:33:26;13.30;;;10.02;;
8698;SDS011;4386;51.236;6.742;2023-03-01T02:34:28;11.90;;;10.40;;
8698;SDS011;4386;51.236;6.742;2023-03-01T02:35:34;13.70;;;10.32;;
8698;SDS011;4386;51.236;6.742;2023-03-01T02:36:39;16.08;;;10.73;;
8698;SDS011;4386;51.236;6.742;2023-03-01T02:37:45;14.00;;;10.63;;
8698;SDS011;4386;51.236;6.742;2023-03-01T02:38:48;13.48;;;9.90;;
8698;SDS011;4386;51.236;6.742;2023-03-01T02:39:55;13.48;;;10.65;;
8698;SDS011;4386;51.236;6.742;2023-03-01T02:41:00;13.38;;;9.52;;
8698;SDS011;4386;51.236;6.742;2023-03-01T02:42:07;22.42;;;10.98;;
8698;SDS011;4386;51.236;6.742;2023-03-01T02:43:12;13.43;;;10.18;;
8698;SDS011;4386;51.236;6.742;2023-03-01T02:44:16;11.98;;;10.52;;
8698;SDS011;4386;51.236;6.742;2023-03-01T02:45:18;15.00;;;11.25;;
8698;SDS011;4386;51.236;6.742;2023-03-01T02:46:23;14.15;;;10.55;;
8698;SDS011;4386;51.236;6.742;2023-03-01T02:47:25;15.52;;;10.68;;
8698;SDS011;4386;51.236;6.742;2023-03-01T02:48:29;17.42;;;11.88;;
8698;SDS011;4386;51.236;6.742;2023-03-01T02:49:41;14.77;;;10.05;;
8698;SDS011;4386;51.236;6.742;2023-03-01T02:50:51;13.88;;;11.02;;
8698;SDS011;4386;51.236;6.742;2023-03-01T02:52:08;16.00;;;10.07;;
8698;SDS011;4386;51.236;6.742;2023-03-01T02:53:23;13.18;;;10.48;;
8698;SDS011;4386;51.236;6.742;2023-03-01T02:54:33;15.65;;;10.55;;
8698;SDS011;4386;51.236;6.742;2023-03-01T02:55:41;13.20;;;10.85;;
8698;SDS011;4386;51.236;6.742;2023-03-01T02:56:43;14.70;;;10.25;;
8698;SDS011;4386;51.236;6.742;2023-03-01T02:57:49;16.58;;;10.32;;
8698;SDS011;4386;51.236;6.742;2023-03-01T02:58:52;17.30;;;11.52;;
8698;SDS011;4386;51.236;6.742;2023-03-01T02:59:55;11.30;;;10.05;;
8698;SDS011;4386;51.236;6.742;2023-03-01T03:01:04;14.93;;;10.13;;
8698;SDS011;4386;51.236;6.742;2023-03-01T03:02:06;19.13;;;10.75;;
8698;SDS011;4386;51.236;6.742;2023-03-01T03:03:08;12.50;;;9.80;;
8698;SDS011;4386;51.236;6.742;2023-03-01T03:04:14;13.68;;;10.25;;
8698;SDS011;4386;51.236;6.742;2023-03-01T03:05:19;12.40;;;10.60;;
8698;SDS011;4386;51.236;6.742;2023-03-01T03:06:23;13.85;;;11.02;;
8698;SDS011;4386;51.236;6.742;2023-03-01T03:07:25;11.45;;;10.02;;
8698;SDS011;4386;51.236;6.742;2023-03-01T03:08:27;13.68;;;10.65;;
8698;SDS011;4386;51.236;6.742;2023-03-01T03:09:30;11.75;;;9.68;;
8698;SDS011;4386;51.236;6.742;2023-03-01T03:10:32;11.85;;;10.43;;
8698;SDS011;4386;51.236;6.742;2023-03-01T03:11:47;19.05;;;11.85;;
8698;SDS011;4386;51.236;6.742;2023-03-01T03:12:49;12.80;;;10.88;;
8698;SDS011;4386;51.236;6.742;2023-03-01T03:13:53;14.75;;;10.75;;
8698;SDS011;4386;51.236;6.742;2023-03-01T03:14:56;14.55;;;10.65;;
8698;SDS011;4386;51.236;6.742;2023-03-01T03:15:59;12.50;;;10.90;;
8698;SDS011;4386;51.236;6.742;2023-03-01T03:17:00;16.70;;;10.70;;
8698;SDS011;4386;51.236;6.742;2023-03-01T03:18:08;14.95;;;11.25;;
8698;SDS011;4386;51.236;6.742;2023-03-01T03:19:13;15.02;;;10.93;;
8698;SDS011;4386;51.236;6.742;2023-03-01T03:20:18;18.02;;;10.48;;
8698;SDS011;4386;51.236;6.742;2023-03-01T03:21:21;11.95;;;10.05;;
8698;SDS011;4386;51.236;6.742;2023-03-01T03:22:24;14.00;;;10.55;;
8698;SDS011;4386;51.236;6.742;2023-03-01T03:23:26;17.13;;;10.45;;
8698;SDS011;4386;51.236;6.742;2023-03-01T03:24:30;16.05;;;11.32;;
8698;SDS011;4386;51.236;6.742;2023-03-01T03:25:39;16.05;;;10.25;;
8698;SDS011;4386;51.236;6.742;2023-03-01T03:26:42;17.45;;;11.73;;
8698;SDS011;4386;51.236;6.742;2023-03-01T03:27:44;13.70;;;10.80;;
8698;SDS011;4386;51.236;6.742;2023-03-01T03:28:48;15.13;;;10.13;;
8698;SDS011;4386;51.236;6.742;2023-03-01T03:29:50;13.30;;;10.65;;
8698;SDS011;4386;51.236;6.742;2023-03-01T03:30:54;12.95;;;10.68;;
8698;SDS011;4386;51.236;6.742;2023-03-01T03:31:55;13.27;;;11.35;;
8698;SDS011;4386;51.236;6.742;2023-03-01T03:32:59;16.40;;;11.45;;
8698;SDS011;4386;51.236;6.742;2023-03-01T03:34:03;14.30;;;10.82;;
8698;SDS011;4386;51.236;6.742;2023-03-01T03:35:06;16.17;;;11.90;;
8698;SDS011;4386;51.236;6.742;2023-03-01T03:36:14;16.50;;;10.45;;
8698;SDS011;4386;51.236;6.742;2023-03-01T03:37:18;14.45;;;10.93;;
8698;SDS011;4386;51.236;6.742;2023-03-01T03:38:35;14.48;;;10.98;;
8698;SDS011;4386;51.236;6.742;2023-03-01T03:39:37;15.50;;;11.10;;
8698;SDS011;4386;51.236;6.742;2023-03-01T03:40:40;11.98;;;10.50;;
8698;SDS011;4386;51.236;6.742;2023-03-01T03:41:43;15.93;;;10.68;;
8698;SDS011;4386;51.236;6.742;2023-03-01T03:42:45;13.48;;;10.95;;
8698;SDS011;4386;51.236;6.742;2023-03-01T03:43:49;18.65;;;12.00;;
8698;SDS011;4386;51.236;6.742;2023-03-01T03:44:59;17.27;;;11.05;;
8698;SDS011;4386;51.236;6.742;2023-03-01T03:46:02;13.85;;;10.07;;
8698;SDS011;4386;51.236;6.742;2023-03-01T03:47:07;14.13;;;10.52;;
8698;SDS011;4386;51.236;6.742;2023-03-01T03:48:09;12.93;;;10.63;;
8698;SDS011;4386;51.236;6.742;2023-03-01T03:49:12;14.68;;;10.82;;
8698;SDS011;4386;51.236;6.742;2023-03-01T03:50:14;11.65;;;9.80;;
8698;SDS011;4386;51.236;6.742;2023-03-01T03:51:18;20.08;;;11.07;;
8698;SDS011;4386;51.236;6.742;2023-03-01T03:52:20;11.90;;;10.40;;
8698;SDS011;4386;51.236;6.742;2023-03-01T03:53:23;13.88;;;11.20;;
8698;SDS011;4386;51.236;6.742;2023-03-01T03:54:27;13.13;;;11.20;;
8698;SDS011;4386;51.236;6.742;2023-03-01T03:55:29;15.18;;;10.68;;
8698;SDS011;4386;51.236;6.742;2023-03-01T03:56:32;14.80;;;11.30;;
8698;SDS011;4386;51.236;6.742;2023-03-01T03:57:37;16.98;;;11.60;;
8698;SDS011;4386;51.236;6.742;2023-03-01T03:58:38;12.57;;;10.82;;
8698;SDS011;4386;51.236;6.742;2023-03-01T03:59:41;14.80;;;11.15;;
8698;SDS011;4386;51.236;6.742;2023-03-01T04:00:43;17.55;;;11.15;;
8698;SDS011;4386;51.236;6.742;2023-03-01T04:01:58;16.35;;;10.45;;
8698;SDS011;4386;51.236;6.742;2023-03-01T04:03:00;14.05;;;10.85;;
8698;SDS011;4386;51.236;6.742;2023-03-01T04:04:02;13.05;;;10.32;;
8698;SDS011;4386;51.236;6.742;2023-03-01T04:05:06;13.32;;;10.70;;
8698;SDS011;4386;51.236;6.742;2023-03-01T04:06:10;13.65;;;10.43;;
8698;SDS011;4386;51.236;6.742;2023-03-01T04:07:21;14.85;;;10.80;;
8698;SDS011;4386;51.236;6.742;2023-03-01T04:08:24;12.68;;;10.30;;
8698;SDS011;4386;51.236;6.742;2023-03-01T04:09:26;20.10;;;11.30;;
8698;SDS011;4386;51.236;6.742;2023-03-01T04:10:31;14.73;;;11.20;;
8698;SDS011;4386;51.236;6.742;2023-03-01T04:11:44;14.30;;;10.15;;
8698;SDS011;4386;51.236;6.742;2023-03-01T04:12:52;18.15;;;11.20;;
8698;SDS011;4386;51.236;6.742;2023-03-01T04:13:54;14.02;;;10.02;;
8698;SDS011;4386;51.236;6.742;2023-03-01T04:14:58;14.88;;;10.85;;
8698;SDS011;4386;51.236;6.742;2023-03-01T04:16:00;13.75;;;10.55;;
8698;SDS011;4386;51.236;6.742;2023-03-01T04:17:04;13.10;;;10.10;;
8698;SDS011;4386;51.236;6.742;2023-03-01T04:18:06;17.30;;;11.00;;
8698;SDS011;4386;51.236;6.742;2023-03-01T04:19:19;13.30;;;10.70;;
8698;SDS011;4386;51.236;6.742;2023-03-01T04:20:23;13.25;;;10.98;;
8698;SDS011;4386;51.236;6.742;2023-03-01T04:21:27;14.98;;;11.65;;
8698;SDS011;4386;51.236;6.742;2023-03-01T04:22:29;15.85;;;11.38;;
8698;SDS011;4386;51.236;6.742;2023-03-01T04:23:33;11.32;;;9.88;;
8698;SDS011;4386;51.236;6.742;2023-03-01T04:24:36;14.88;;;11.23;;
8698;SDS011;4386;51.236;6.742;2023-03-01T04:25:38;12.73;;;10.27;;
8698;SDS011;4386;51.236;6.742;2023-03-01T04:26:41;11.80;;;10.45;;
8698;SDS011;4386;51.236;6.742;2023-03-01T04:27:43;18.00;;;11.30;;
8698;SDS011;4386;51.236;6.742;2023-03-01T04:28:45;19.20;;;10.82;;
8698;SDS011;4386;51.236;6.742;2023-03-01T04:29:49;14.98;;;10.55;;
8698;SDS011;4386;51.236;6.742;2023-03-01T04:30:51;16.38;;;11.25;;
8698;SDS011;4386;51.236;6.742;2023-03-01T04:31:56;14.07;;;11.10;;
8698;SDS011;4386;51.236;6.742;2023-03-01T04:33:04;14.43;;;11.57;;
8698;SDS011;4386;51.236;6.742;2023-03-01T04:34:06;17.10;;;13.80;;
8698;SDS011;4386;51.236;6.742;2023-03-01T04:35:09;16.25;;;10.00;;
8698;SDS011;4386;51.236;6.742;2023-03-01T04:36:11;17.48;;;11.52;;
8698;SDS011;4386;51.236;6.742;2023-03-01T04:37:14;16.40;;;11.07;;
8698;SDS011;4386;51.236;6.742;2023-03-01T04:38:19;15.85;;;11.27;;
8698;SDS011;4386;51.236;6.742;2023-03-01T04:39:22;14.50;;;11.20;;
8698;SDS011;4386;51.236;6.742;2023-03-01T04:40:24;15.88;;;10.52;;
8698;SDS011;4386;51.236;6.742;2023-03-01T04:41:27;14.75;;;11.18;;
8698;SDS011;4386;51.236;6.742;2023-03-01T04:42:28;14.80;;;11.30;;
8698;SDS011;4386;51.236;6.742;2023-03-01T04:43:31;14.88;;;11.27;;
8698;SDS011;4386;51.236;6.742;2023-03-01T04:44:33;13.73;;;10.95;;
8698;SDS011;4386;51.236;6.742;2023-03-01T04:45:35;15.38;;;11.50;;
8698;SDS011;4386;51.236;6.742;2023-03-01T04:46:37;14.57;;;10.40;;
8698;SDS011;4386;51.236;6.742;2023-03-01T04:47:40;16.90;;;11.98;;
8698;SDS011;4386;51.236;6.742;2023-03-01T04:48:45;16.45;;;10.80;;
8698;SDS011;4386;51.236;6.742;2023-03-01T04:49:48;14.07;;;11.05;;
8698;SDS011;4386;51.236;6.742;2023-03-01T04:50:50;13.70;;;10.63;;
8698;SDS011;4386;51.236;6.742;2023-03-01T04:52:02;13.93;;;10.65;;
8698;SDS011;4386;51.236;6.742;2023-03-01T04:53:04;15.18;;;10.70;;
8698;SDS011;4386;51.236;6.742;2023-03-01T04:54:06;14.73;;;10.73;;
8698;SDS011;4386;51.236;6.742;2023-03-01T04:55:10;12.13;;;10.15;;
8698;SDS011;4386;51.236;6.742;2023-03-01T04:56:13;12.90;;;11.00;;
8698;SDS011;4386;51.236;6.742;2023-03-01T04:57:15;15.95;;;10.95;;
8698;SDS011;4386;51.236;6.742;2023-03-01T04:58:18;14.48;;;10.95;;
8698;SDS011;4386;51.236;6.742;2023-03-01T04:59:19;12.98;;;11.32;;
8698;SDS011;4386;51.236;6.742;2023-03-01T05:00:24;16.70;;;11.93;;
8698;SDS011;4386;51.236;6.742;2023-03-01T05:01:26;15.98;;;11.70;;
8698;SDS011;4386;51.236;6.742;2023-03-01T05:02:29;16.45;;;10.98;;
8698;SDS011;4386;51.236;6.742;2023-03-01T05:03:31;14.05;;;10.70;;
8698;SDS011;4386;51.236;6.742;2023-03-01T05:04:35;13.75;;;11.07;;
8698;SDS011;4386;51.236;6.742;2023-03-01T05:05:37;22.38;;;11.85;;
8698;SDS011;4386;51.236;6.742;2023-03-01T05:06:45;14.50;;;11.02;;
8698;SDS011;4386;51.236;6.742;2023-03-01T05:07:47;13.55;;;11.55;;
8698;SDS011;4386;51.236;6.742;2023-03-01T05:08:50;15.20;;;11.63;;
8698;SDS011;4386;51.236;6.742;2023-03-01T05:09:51;15.88;;;11.27;;
8698;SDS011;4386;51.236;6.742;2023-03-01T05:10:55;18.05;;;12.45;;
8698;SDS011;4386;51.236;6.742;2023-03-01T05:11:56;15.82;;;12.00;;
8698;SDS011;4386;51.236;6.742;2023-03-01T05:12:59;16.40;;;11.30;;
8698;SDS011;4386;51.236;6.742;2023-03-01T05:14:01;15.02;;;11.73;;
8698;SDS011;4386;51.236;6.742;2023-03-01T05:15:04;14.65;;;11.57;;
8698;SDS011;4386;51.236;6.742;2023-03-01T05:16:15;13.38;;;10.40;;
8698;SDS011;4386;51.236;6.742;2023-03-01T05:17:18;17.13;;;11.35;;
8698;SDS011;4386;51.236;6.742;2023-03-01T05:18:20;15.40;;;11.13;;
8698;SDS011;4386;51.236;6.742;2023-03-01T05:19:27;15.32;;;11.63;;
8698;SDS011;4386;51.236;6.742;2023-03-01T05:20:30;14.68;;;10.25;;
8698;SDS011;4386;51.236;6.742;2023-03-01T05:21:32;14.80;;;11.02;;
8698;SDS011;4386;51.236;6.742;2023-03-01T05:22:35;14.70;;;10.52;;
8698;SDS011;4386;51.236;6.742;2023-03-01T05:23:37;12.80;;;10.40;;
8698;SDS011;4386;51.236;6.742;2023-03-01T05:24:40;13.13;;;11.15;;
8698;SDS011;4386;51.236;6.742;2023-03-01T05:25:50;15.30;;;10.80;;
8698;SDS011;4386;51.236;6.742;2023-03-01T05:26:55;16.85;;;11.30;;
8698;SDS011;4386;51.236;6.742;2023-03-01T05:27:56;16.90;;;11.60;;
8698;SDS011;4386;51.236;6.742;2023-03-01T05:28:59;18.45;;;12.98;;
8698;SDS011;4386;51.236;6.742;2023-03-01T05:30:01;15.43;;;12.32;;
8698;SDS011;4386;51.236;6.742;2023-03-01T05:31:14;14.77;;;11.65;;
8698;SDS011;4386;51.236;6.742;2023-03-01T05:32:16;13.45;;;10.77;;
8698;SDS011;4386;51.236;6.742;2023-03-01T05:33:18;17.02;;;11.90;;
8698;SDS011;4386;51.236;6.742;2023-03-01T05:34:22;13.88;;;10.80;;
8698;SDS011;4386;51.236;6.742;2023-03-01T05:35:26;18.08;;;11.93;;
8698;SDS011;4386;51.236;6.742;2023-03-01T05:36:39;14.27;;;12.05;;
8698;SDS011;4386;51.236;6.742;2023-03-01T05:37:42;15.50;;;10.93;;
8698;SDS011;4386;51.236;6.742;2023-03-01T05:38:45;17.25;;;10.85;;
8698;SDS011;4386;51.236;6.742;2023-03-01T05:39:47;18.67;;;12.02;;
8698;SDS011;4386;51.236;6.742;2023-03-01T05:40:51;15.98;;;12.32;;
8698;SDS011;4386;51.236;6.742;2023-03-01T05:41:54;20.25;;;13.90;;
8698;SDS011;4386;51.236;6.742;2023-03-01T05:43:01;20.02;;;13.00;;
8698;SDS011;4386;51.236;6.742;2023-03-01T05:44:06;16.92;;;12.20;;
8698;SDS011;4386;51.236;6.742;2023-03-01T05:45:08;16.30;;;11.25;;
8698;SDS011;4386;51.236;6.742;2023-03-01T05:46:13;16.50;;;12.27;;
8698;SDS011;4386;51.236;6.742;2023-03-01T05:47:16;18.30;;;12.00;;
8698;SDS011;4386;51.236;6.742;2023-03-01T05:48:18;20.42;;;12.02;;
8698;SDS011;4386;51.236;6.742;2023-03-01T05:49:21;16.75;;;11.52;;
8698;SDS011;4386;51.236;6.742;2023-03-01T05:50:36;17.52;;;12.80;;
8698;SDS011;4386;51.236;6.742;2023-03-01T05:51:41;15.32;;;12.55;;
8698;SDS011;4386;51.236;6.742;2023-03-01T05:52:43;16.15;;;11.85;;
8698;SDS011;4386;51.236;6.742;2023-03-01T05:53:46;20.70;;;12.65;;
8698;SDS011;4386;51.236;6.742;2023-03-01T05:54:48;16.02;;;11.80;;
8698;SDS011;4386;51.236;6.742;2023-03-01T05:55:50;18.67;;;12.80;;
8698;SDS011;4386;51.236;6.742;2023-03-01T05:56:53;15.60;;;11.02;;
8698;SDS011;4386;51.236;6.742;2023-03-01T05:57:54;15.18;;;11.75;;
8698;SDS011;4386;51.236;6.742;2023-03-01T05:59:00;16.80;;;11.68;;
8698;SDS011;4386;51.236;6.742;2023-03-01T06:00:02;22.08;;;12.20;;
8698;SDS011;4386;51.236;6.742;2023-03-01T06:01:10;22.05;;;12.07;;
8698;SDS011;4386;51.236;6.742;2023-03-01T06:02:13;15.98;;;11.15;;
8698;SDS011;4386;51.236;6.742;2023-03-01T06:03:16;14.98;;;11.75;;
8698;SDS011;4386;51.236;6.742;2023-03-01T06:04:18;17.48;;;12.50;;
8698;SDS011;4386;51.236;6.742;2023-03-01T06:05:25;16.92;;;12.15;;
8698;SDS011;4386;51.236;6.742;2023-03-01T06:06:28;18.23;;;12.18;;
8698;SDS011;4386;51.236;6.742;2023-03-01T06:07:43;16.67;;;11.63;;
8698;SDS011;4386;51.236;6.742;2023-03-01T06:08:54;18.77;;;11.60;;
8698;SDS011;4386;51.236;6.742;2023-03-01T06:09:56;14.95;;;12.18;;
8698;SDS011;4386;51.236;6.742;2023-03-01T06:10:58;15.82;;;11.35;;
8698;SDS011;4386;51.236;6.742;2023-03-01T06:12:00;20.60;;;12.45;;
8698;SDS011;4386;51.236;6.742;2023-03-01T06:13:02;17.98;;;12.13;;
8698;SDS011;4386;51.236;6.742;2023-03-01T06:14:05;18.60;;;12.55;;
8698;SDS011;4386;51.236;6.742;2023-03-01T06:15:12;15.50;;;11.73;;
8698;SDS011;4386;51.236;6.742;2023-03-01T06:16:25;14.98;;;11.95;;
8698;SDS011;4386;51.236;6.742;2023-03-01T06:17:29;16.95;;;12.23;;
8698;SDS011;4386;51.236;6.742;2023-03-01T06:18:31;16.95;;;12.07;;
8698;SDS011;4386;51.236;6.742;2023-03-01T06:19:33;15.45;;;12.10;;
8698;SDS011;4386;51.236;6.742;2023-03-01T06:20:35;21.13;;;13.25;;
8698;SDS011;4386;51.236;6.742;2023-03-01T06:21:38;18.30;;;12.52;;
8698;SDS011;4386;51.236;6.742;2023-03-01T06:22:39;15.50;;;12.18;;
8698;SDS011;4386;51.236;6.742;2023-03-01T06:23:44;19.02;;;12.07;;
8698;SDS011;4386;51.236;6.742;2023-03-01T06:25:00;14.70;;;11.52;;
8698;SDS011;4386;51.236;6.742;2023-03-01T06:26:05;16.80;;;12.98;;
8698;SDS011;4386;51.236;6.742;2023-03-01T06:27:11;17.33;;;12.07;;
8698;SDS011;4386;51.236;6.742;2023-03-01T06:28:15;16.58;;;12.80;;
8698;SDS011;4386;51.236;6.742;2023-03-01T06:29:18;20.10;;;13.32;;
8698;SDS011;4386;51.236;6.742;2023-03-01T06:30:21;17.63;;;12.98;;
8698;SDS011;4386;51.236;6.742;2023-03-01T06:31:34;18.60;;;12.80;;
8698;SDS011;4386;51.236;6.742;2023-03-01T06:32:37;18.35;;;13.27;;
8698;SDS011;4386;51.236;6.742;2023-03-01T06:33:38;18.88;;;12.20;;
8698;SDS011;4386;51.236;6.742;2023-03-01T06:34:41;16.05;;;12.10;;